Disclaimer

Please do not use the information listed here in-flight or in-navigation, as they are not provided to us by the airports but are provided by volunteers, so they might be outdated.

Search


Regions


Airport information page

Radio informations:
EVREUX TWR - 119.7 MHz
EVREUX GND - 122.1 MHz
EVREUX ATIS - 138.225 MHz
EVREUX APP - 118.125 MHz

Airport informations:
Latitude: 49° 01' 43.21" N
Longitude: 001° 13' 11.51" E
Elevation: 464 feet - 141 meters
Operating hours: Remarks
Operating agency: Military
Timezone: UTC+1(+2DT) - Last Sunday in March to last Sunday in October
Fuel: Jet A1+, Jet A1 with icing inhibitor.

Jet A1, without icing nhibitor.

Runway information:
04/22 - 9826 x 148 feet< - >2995 x 45 meters

Recent METARs:
LFOE 160900Z AUTO 22009KT 0500 0450 R22/0750N FG VV/// 05/04 Q1011 BECMG 3000 BR BKN003
LFOE 160930Z AUTO 21008KT 0500 0450 R22/0750N FG VV/// 05/04 Q1011 BECMG 3000 BR BKN003
LFOE 161000Z AUTO 21009KT 0450 0400 R22/0650N FG VV/// 05/05 Q1011 BECMG 3000 BR BKN003

Airport on the map: